sensor_id;sensor_type;location;lat;lon;timestamp;P1;durP1;ratioP1;P2;durP2;ratioP2
75504;SDS011;64085;54.974;73.410;2023-07-31T00:02:18;9.68;;;5.80;;
75504;SDS011;64085;54.974;73.410;2023-07-31T00:04:44;8.98;;;5.43;;
75504;SDS011;64085;54.974;73.410;2023-07-31T00:07:09;10.32;;;6.18;;
75504;SDS011;64085;54.974;73.410;2023-07-31T00:09:34;10.85;;;5.55;;
75504;SDS011;64085;54.974;73.410;2023-07-31T00:12:02;6.38;;;5.45;;
75504;SDS011;64085;54.974;73.410;2023-07-31T00:14:28;13.05;;;6.40;;
75504;SDS011;64085;54.974;73.410;2023-07-31T00:16:53;9.50;;;6.13;;
75504;SDS011;64085;54.974;73.410;2023-07-31T00:19:19;12.52;;;6.70;;
75504;SDS011;64085;54.974;73.410;2023-07-31T00:21:44;15.93;;;6.35;;
75504;SDS011;64085;54.974;73.410;2023-07-31T00:24:10;14.20;;;6.72;;
75504;SDS011;64085;54.974;73.410;2023-07-31T00:26:35;6.80;;;5.43;;
75504;SDS011;64085;54.974;73.410;2023-07-31T00:29:01;7.60;;;5.57;;
75504;SDS011;64085;54.974;73.410;2023-07-31T00:31:26;9.75;;;6.28;;
75504;SDS011;64085;54.974;73.410;2023-07-31T00:33:52;10.27;;;6.40;;
75504;SDS011;64085;54.974;73.410;2023-07-31T00:36:17;10.18;;;5.63;;
75504;SDS011;64085;54.974;73.410;2023-07-31T00:38:43;7.05;;;5.82;;
75504;SDS011;64085;54.974;73.410;2023-07-31T00:41:08;9.52;;;5.88;;
75504;SDS011;64085;54.974;73.410;2023-07-31T00:43:34;7.30;;;5.78;;
75504;SDS011;64085;54.974;73.410;2023-07-31T00:45:59;9.55;;;6.32;;
75504;SDS011;64085;54.974;73.410;2023-07-31T00:48:25;10.15;;;6.38;;
75504;SDS011;64085;54.974;73.410;2023-07-31T00:50:50;12.57;;;7.65;;
75504;SDS011;64085;54.974;73.410;2023-07-31T00:53:16;16.88;;;9.13;;
75504;SDS011;64085;54.974;73.410;2023-07-31T00:55:42;16.67;;;9.98;;
75504;SDS011;64085;54.974;73.410;2023-07-31T00:58:07;20.88;;;10.65;;
75504;SDS011;64085;54.974;73.410;2023-07-31T01:00:33;26.73;;;13.02;;
75504;SDS011;64085;54.974;73.410;2023-07-31T01:02:58;21.55;;;12.30;;
75504;SDS011;64085;54.974;73.410;2023-07-31T01:05:25;18.92;;;11.82;;
75504;SDS011;64085;54.974;73.410;2023-07-31T01:10:26;19.33;;;12.63;;
75504;SDS011;64085;54.974;73.410;2023-07-31T01:12:54;18.25;;;12.38;;
75504;SDS011;64085;54.974;73.410;2023-07-31T01:15:21;15.90;;;10.88;;
75504;SDS011;64085;54.974;73.410;2023-07-31T01:17:47;16.48;;;11.88;;
75504;SDS011;64085;54.974;73.410;2023-07-31T01:20:20;12.60;;;10.50;;
75504;SDS011;64085;54.974;73.410;2023-07-31T01:23:11;12.80;;;10.00;;
75504;SDS011;64085;54.974;73.410;2023-07-31T01:25:48;13.02;;;10.38;;
75504;SDS011;64085;54.974;73.410;2023-07-31T01:28:14;11.02;;;9.82;;
75504;SDS011;64085;54.974;73.410;2023-07-31T01:30:41;11.85;;;9.85;;
75504;SDS011;64085;54.974;73.410;2023-07-31T01:33:08;12.85;;;10.38;;
75504;SDS011;64085;54.974;73.410;2023-07-31T01:35:34;11.65;;;10.20;;
75504;SDS011;64085;54.974;73.410;2023-07-31T01:38:00;13.70;;;11.45;;
75504;SDS011;64085;54.974;73.410;2023-07-31T01:40:25;14.75;;;12.77;;
75504;SDS011;64085;54.974;73.410;2023-07-31T01:42:51;14.68;;;11.75;;
75504;SDS011;64085;54.974;73.410;2023-07-31T01:45:16;12.82;;;11.13;;
75504;SDS011;64085;54.974;73.410;2023-07-31T01:47:42;12.95;;;11.65;;
75504;SDS011;64085;54.974;73.410;2023-07-31T01:50:07;18.30;;;12.82;;
75504;SDS011;64085;54.974;73.410;2023-07-31T01:52:33;14.55;;;12.63;;
75504;SDS011;64085;54.974;73.410;2023-07-31T01:54:58;20.27;;;13.85;;
75504;SDS011;64085;54.974;73.410;2023-07-31T01:57:23;19.45;;;14.45;;
75504;SDS011;64085;54.974;73.410;2023-07-31T01:59:49;23.25;;;16.92;;
75504;SDS011;64085;54.974;73.410;2023-07-31T02:02:15;24.05;;;16.65;;
75504;SDS011;64085;54.974;73.410;2023-07-31T02:04:41;21.13;;;15.55;;
75504;SDS011;64085;54.974;73.410;2023-07-31T02:07:06;25.25;;;17.05;;
75504;SDS011;64085;54.974;73.410;2023-07-31T02:09:31;24.17;;;16.83;;
75504;SDS011;64085;54.974;73.410;2023-07-31T02:11:57;25.90;;;17.13;;
75504;SDS011;64085;54.974;73.410;2023-07-31T02:14:22;22.80;;;16.95;;
75504;SDS011;64085;54.974;73.410;2023-07-31T02:16:48;30.30;;;16.13;;
75504;SDS011;64085;54.974;73.410;2023-07-31T02:19:13;22.02;;;16.00;;
75504;SDS011;64085;54.974;73.410;2023-07-31T02:21:38;27.27;;;15.73;;
75504;SDS011;64085;54.974;73.410;2023-07-31T02:24:04;22.17;;;14.90;;
75504;SDS011;64085;54.974;73.410;2023-07-31T02:26:29;28.13;;;15.20;;
75504;SDS011;64085;54.974;73.410;2023-07-31T02:28:55;22.50;;;15.23;;
75504;SDS011;64085;54.974;73.410;2023-07-31T02:31:20;31.83;;;16.75;;
75504;SDS011;64085;54.974;73.410;2023-07-31T02:33:46;24.02;;;16.55;;
75504;SDS011;64085;54.974;73.410;2023-07-31T02:36:11;28.20;;;16.42;;
75504;SDS011;64085;54.974;73.410;2023-07-31T02:38:37;25.58;;;16.67;;
75504;SDS011;64085;54.974;73.410;2023-07-31T02:41:02;26.80;;;18.58;;
75504;SDS011;64085;54.974;73.410;2023-07-31T02:43:27;24.40;;;18.15;;
75504;SDS011;64085;54.974;73.410;2023-07-31T02:45:53;26.33;;;19.05;;
75504;SDS011;64085;54.974;73.410;2023-07-31T02:48:18;33.95;;;20.95;;
75504;SDS011;64085;54.974;73.410;2023-07-31T02:50:44;26.55;;;19.95;;
75504;SDS011;64085;54.974;73.410;2023-07-31T02:53:10;27.83;;;19.15;;
75504;SDS011;64085;54.974;73.410;2023-07-31T02:55:35;31.02;;;21.00;;
75504;SDS011;64085;54.974;73.410;2023-07-31T02:58:01;24.85;;;19.55;;
75504;SDS011;64085;54.974;73.410;2023-07-31T03:00:26;28.30;;;18.25;;
75504;SDS011;64085;54.974;73.410;2023-07-31T03:02:51;25.13;;;20.13;;
75504;SDS011;64085;54.974;73.410;2023-07-31T03:05:17;33.83;;;18.85;;
75504;SDS011;64085;54.974;73.410;2023-07-31T03:07:42;23.65;;;17.50;;
75504;SDS011;64085;54.974;73.410;2023-07-31T03:10:08;22.52;;;16.17;;
75504;SDS011;64085;54.974;73.410;2023-07-31T03:12:33;17.98;;;12.13;;
75504;SDS011;64085;54.974;73.410;2023-07-31T03:14:59;19.90;;;12.88;;
75504;SDS011;64085;54.974;73.410;2023-07-31T03:17:24;20.15;;;13.48;;
75504;SDS011;64085;54.974;73.410;2023-07-31T03:19:50;14.27;;;12.07;;
75504;SDS011;64085;54.974;73.410;2023-07-31T03:22:15;18.58;;;12.60;;
75504;SDS011;64085;54.974;73.410;2023-07-31T03:24:41;14.27;;;11.65;;
75504;SDS011;64085;54.974;73.410;2023-07-31T03:27:06;18.10;;;11.77;;
75504;SDS011;64085;54.974;73.410;2023-07-31T03:29:31;18.50;;;10.80;;
75504;SDS011;64085;54.974;73.410;2023-07-31T03:31:57;8.90;;;8.02;;
75504;SDS011;64085;54.974;73.410;2023-07-31T03:34:22;11.02;;;8.07;;
75504;SDS011;64085;54.974;73.410;2023-07-31T03:36:48;9.48;;;8.05;;
75504;SDS011;64085;54.974;73.410;2023-07-31T03:39:13;11.32;;;8.75;;
75504;SDS011;64085;54.974;73.410;2023-07-31T03:41:39;12.30;;;8.85;;
75504;SDS011;64085;54.974;73.410;2023-07-31T03:44:07;9.23;;;8.32;;
75504;SDS011;64085;54.974;73.410;2023-07-31T03:46:33;9.80;;;8.73;;
75504;SDS011;64085;54.974;73.410;2023-07-31T03:48:58;9.98;;;8.68;;
75504;SDS011;64085;54.974;73.410;2023-07-31T03:51:24;8.95;;;7.57;;
75504;SDS011;64085;54.974;73.410;2023-07-31T03:53:49;8.40;;;7.10;;
75504;SDS011;64085;54.974;73.410;2023-07-31T03:56:15;9.18;;;8.35;;
75504;SDS011;64085;54.974;73.410;2023-07-31T03:58:40;8.07;;;7.28;;
75504;SDS011;64085;54.974;73.410;2023-07-31T04:01:06;9.20;;;8.23;;
75504;SDS011;64085;54.974;73.410;2023-07-31T04:03:31;8.10;;;7.35;;
75504;SDS011;64085;54.974;73.410;2023-07-31T04:05:56;7.20;;;6.60;;
75504;SDS011;64085;54.974;73.410;2023-07-31T04:08:22;8.65;;;7.85;;
75504;SDS011;64085;54.974;73.410;2023-07-31T04:10:48;6.93;;;6.43;;
75504;SDS011;64085;54.974;73.410;2023-07-31T04:13:14;7.55;;;6.80;;
75504;SDS011;64085;54.974;73.410;2023-07-31T04:15:39;7.43;;;6.78;;
75504;SDS011;64085;54.974;73.410;2023-07-31T04:18:05;7.22;;;6.63;;
75504;SDS011;64085;54.974;73.410;2023-07-31T04:20:30;7.18;;;6.72;;
75504;SDS011;64085;54.974;73.410;2023-07-31T04:22:56;13.77;;;7.63;;
75504;SDS011;64085;54.974;73.410;2023-07-31T04:25:21;6.80;;;6.10;;
75504;SDS011;64085;54.974;73.410;2023-07-31T04:27:47;6.75;;;6.25;;
75504;SDS011;64085;54.974;73.410;2023-07-31T04:30:12;7.05;;;6.45;;
75504;SDS011;64085;54.974;73.410;2023-07-31T04:32:37;6.53;;;6.10;;
75504;SDS011;64085;54.974;73.410;2023-07-31T04:35:03;7.00;;;6.32;;
75504;SDS011;64085;54.974;73.410;2023-07-31T04:37:28;6.72;;;6.32;;
75504;SDS011;64085;54.974;73.410;2023-07-31T04:39:54;7.53;;;6.93;;
75504;SDS011;64085;54.974;73.410;2023-07-31T04:42:19;6.93;;;6.43;;
75504;SDS011;64085;54.974;73.410;2023-07-31T04:44:45;6.97;;;6.57;;
75504;SDS011;64085;54.974;73.410;2023-07-31T04:47:10;6.78;;;6.38;;
75504;SDS011;64085;54.974;73.410;2023-07-31T04:49:36;7.72;;;6.93;;
75504;SDS011;64085;54.974;73.410;2023-07-31T04:52:01;7.47;;;6.97;;
75504;SDS011;64085;54.974;73.410;2023-07-31T04:54:26;8.10;;;7.47;;
75504;SDS011;64085;54.974;73.410;2023-07-31T04:56:52;7.78;;;7.28;;
75504;SDS011;64085;54.974;73.410;2023-07-31T04:59:17;7.53;;;7.13;;
75504;SDS011;64085;54.974;73.410;2023-07-31T05:01:43;7.25;;;6.63;;
75504;SDS011;64085;54.974;73.410;2023-07-31T05:04:14;7.93;;;7.13;;
75504;SDS011;64085;54.974;73.410;2023-07-31T05:06:39;7.32;;;6.82;;
75504;SDS011;64085;54.974;73.410;2023-07-31T05:09:05;7.38;;;6.88;;
75504;SDS011;64085;54.974;73.410;2023-07-31T05:11:30;7.38;;;6.78;;
75504;SDS011;64085;54.974;73.410;2023-07-31T05:13:56;7.22;;;6.63;;
75504;SDS011;64085;54.974;73.410;2023-07-31T05:16:21;7.50;;;7.00;;
75504;SDS011;64085;54.974;73.410;2023-07-31T05:18:47;6.65;;;6.30;;
75504;SDS011;64085;54.974;73.410;2023-07-31T05:21:12;7.78;;;7.15;;
75504;SDS011;64085;54.974;73.410;2023-07-31T05:23:37;7.18;;;6.78;;
75504;SDS011;64085;54.974;73.410;2023-07-31T05:26:06;7.05;;;6.55;;
75504;SDS011;64085;54.974;73.410;2023-07-31T05:28:34;7.03;;;6.63;;
75504;SDS011;64085;54.974;73.410;2023-07-31T05:31:00;7.25;;;6.68;;
75504;SDS011;64085;54.974;73.410;2023-07-31T05:33:26;7.60;;;7.10;;
75504;SDS011;64085;54.974;73.410;2023-07-31T05:35:51;7.90;;;7.40;;
75504;SDS011;64085;54.974;73.410;2023-07-31T05:38:19;7.82;;;7.15;;
75504;SDS011;64085;54.974;73.410;2023-07-31T05:40:44;6.97;;;6.57;;
75504;SDS011;64085;54.974;73.410;2023-07-31T05:43:10;6.75;;;6.20;;
75504;SDS011;64085;54.974;73.410;2023-07-31T05:45:35;7.68;;;7.10;;
75504;SDS011;64085;54.974;73.410;2023-07-31T05:48:01;8.18;;;6.60;;
75504;SDS011;64085;54.974;73.410;2023-07-31T05:50:27;6.75;;;6.25;;
75504;SDS011;64085;54.974;73.410;2023-07-31T05:52:52;6.57;;;6.05;;
75504;SDS011;64085;54.974;73.410;2023-07-31T05:55:18;7.13;;;6.43;;
75504;SDS011;64085;54.974;73.410;2023-07-31T05:57:43;6.70;;;6.22;;
75504;SDS011;64085;54.974;73.410;2023-07-31T06:02:36;6.87;;;6.37;;
75504;SDS011;64085;54.974;73.410;2023-07-31T06:05:02;5.32;;;4.95;;
75504;SDS011;64085;54.974;73.410;2023-07-31T06:07:29;7.05;;;6.47;;
75504;SDS011;64085;54.974;73.410;2023-07-31T06:09:54;6.82;;;6.43;;
75504;SDS011;64085;54.974;73.410;2023-07-31T06:12:20;5.95;;;5.45;;
75504;SDS011;64085;54.974;73.410;2023-07-31T06:14:46;7.80;;;6.13;;
75504;SDS011;64085;54.974;73.410;2023-07-31T06:17:11;7.07;;;6.43;;
75504;SDS011;64085;54.974;73.410;2023-07-31T06:19:36;6.50;;;6.00;;
75504;SDS011;64085;54.974;73.410;2023-07-31T06:22:02;6.85;;;6.22;;
75504;SDS011;64085;54.974;73.410;2023-07-31T06:24:28;6.82;;;6.25;;
75504;SDS011;64085;54.974;73.410;2023-07-31T06:26:56;7.18;;;6.50;;
75504;SDS011;64085;54.974;73.410;2023-07-31T06:29:22;6.95;;;6.35;;
75504;SDS011;64085;54.974;73.410;2023-07-31T06:31:48;6.32;;;5.82;;
75504;SDS011;64085;54.974;73.410;2023-07-31T06:34:13;6.18;;;5.68;;
75504;SDS011;64085;54.974;73.410;2023-07-31T06:36:38;7.05;;;6.20;;
75504;SDS011;64085;54.974;73.410;2023-07-31T06:39:04;7.63;;;6.53;;
75504;SDS011;64085;54.974;73.410;2023-07-31T06:41:29;6.45;;;5.93;;
75504;SDS011;64085;54.974;73.410;2023-07-31T06:43:55;10.45;;;6.28;;
75504;SDS011;64085;54.974;73.410;2023-07-31T06:46:20;6.57;;;6.07;;
75504;SDS011;64085;54.974;73.410;2023-07-31T06:48:46;8.00;;;6.60;;
75504;SDS011;64085;54.974;73.410;2023-07-31T06:51:11;6.82;;;5.50;;
75504;SDS011;64085;54.974;73.410;2023-07-31T06:53:36;6.55;;;6.03;;
75504;SDS011;64085;54.974;73.410;2023-07-31T06:56:02;7.45;;;6.35;;
75504;SDS011;64085;54.974;73.410;2023-07-31T06:58:27;6.35;;;5.63;;
75504;SDS011;64085;54.974;73.410;2023-07-31T07:00:53;6.65;;;5.95;;
75504;SDS011;64085;54.974;73.410;2023-07-31T07:03:18;6.13;;;5.60;;
75504;SDS011;64085;54.974;73.410;2023-07-31T07:05:44;7.25;;;5.85;;
75504;SDS011;64085;54.974;73.410;2023-07-31T07:08:10;7.47;;;6.07;;
75504;SDS011;64085;54.974;73.410;2023-07-31T07:10:35;6.88;;;6.25;;
75504;SDS011;64085;54.974;73.410;2023-07-31T07:13:00;7.82;;;5.43;;
75504;SDS011;64085;54.974;73.410;2023-07-31T07:15:26;6.65;;;6.03;;
75504;SDS011;64085;54.974;73.410;2023-07-31T07:17:51;15.80;;;6.97;;
75504;SDS011;64085;54.974;73.410;2023-07-31T07:20:17;8.13;;;5.78;;
75504;SDS011;64085;54.974;73.410;2023-07-31T07:22:42;6.28;;;5.68;;
75504;SDS011;64085;54.974;73.410;2023-07-31T07:25:08;9.13;;;6.00;;
75504;SDS011;64085;54.974;73.410;2023-07-31T07:27:37;5.90;;;5.40;;
75504;SDS011;64085;54.974;73.410;2023-07-31T07:30:05;6.78;;;5.57;;
75504;SDS011;64085;54.974;73.410;2023-07-31T07:32:30;8.45;;;6.03;;
75504;SDS011;64085;54.974;73.410;2023-07-31T07:34:56;7.95;;;6.13;;
75504;SDS011;64085;54.974;73.410;2023-07-31T07:37:21;6.00;;;5.40;;
75504;SDS011;64085;54.974;73.410;2023-07-31T07:39:47;5.05;;;4.38;;
75504;SDS011;64085;54.974;73.410;2023-07-31T07:42:12;5.72;;;4.38;;
75504;SDS011;64085;54.974;73.410;2023-07-31T07:44:41;8.32;;;3.78;;
75504;SDS011;64085;54.974;73.410;2023-07-31T07:47:06;4.60;;;4.13;;
75504;SDS011;64085;54.974;73.410;2023-07-31T07:49:32;6.18;;;4.10;;
75504;SDS011;64085;54.974;73.410;2023-07-31T07:51:58;4.18;;;3.78;;
75504;SDS011;64085;54.974;73.410;2023-07-31T07:54:24;4.40;;;4.00;;
75504;SDS011;64085;54.974;73.410;2023-07-31T07:56:51;4.55;;;4.13;;
75504;SDS011;64085;54.974;73.410;2023-07-31T07:59:17;4.70;;;4.20;;
75504;SDS011;64085;54.974;73.410;2023-07-31T08:01:42;5.07;;;4.57;;
75504;SDS011;64085;54.974;73.410;2023-07-31T08:04:08;9.27;;;5.70;;
75504;SDS011;64085;54.974;73.410;2023-07-31T08:06:33;10.68;;;6.13;;
75504;SDS011;64085;54.974;73.410;2023-07-31T08:08:59;8.15;;;5.82;;
75504;SDS011;64085;54.974;73.410;2023-07-31T08:11:24;8.38;;;7.20;;
75504;SDS011;64085;54.974;73.410;2023-07-31T08:13:50;10.35;;;7.90;;
75504;SDS011;64085;54.974;73.410;2023-07-31T08:16:15;8.52;;;7.15;;
75504;SDS011;64085;54.974;73.410;2023-07-31T08:18:41;12.75;;;7.43;;
75504;SDS011;64085;54.974;73.410;2023-07-31T08:21:07;10.20;;;7.45;;
75504;SDS011;64085;54.974;73.410;2023-07-31T08:23:38;15.05;;;8.60;;
75504;SDS011;64085;54.974;73.410;2023-07-31T08:26:06;15.30;;;8.70;;
75504;SDS011;64085;54.974;73.410;2023-07-31T08:28:32;15.52;;;8.73;;
75504;SDS011;64085;54.974;73.410;2023-07-31T08:30:57;20.42;;;10.05;;
75504;SDS011;64085;54.974;73.410;2023-07-31T08:33:23;13.02;;;9.35;;
75504;SDS011;64085;54.974;73.410;2023-07-31T08:35:48;12.30;;;7.80;;
75504;SDS011;64085;54.974;73.410;2023-07-31T08:38:13;8.80;;;6.65;;
75504;SDS011;64085;54.974;73.410;2023-07-31T08:40:39;10.80;;;7.00;;
75504;SDS011;64085;54.974;73.410;2023-07-31T08:43:04;12.25;;;8.10;;
75504;SDS011;64085;54.974;73.410;2023-07-31T08:45:30;13.07;;;7.13;;
75504;SDS011;64085;54.974;73.410;2023-07-31T08:47:56;11.98;;;7.65;;
75504;SDS011;64085;54.974;73.410;2023-07-31T08:50:24;14.05;;;8.18;;
75504;SDS011;64085;54.974;73.410;2023-07-31T08:52:53;10.32;;;7.03;;
75504;SDS011;64085;54.974;73.410;2023-07-31T08:55:18;7.63;;;6.78;;
75504;SDS011;64085;54.974;73.410;2023-07-31T08:57:50;7.60;;;6.47;;
75504;SDS011;64085;54.974;73.410;2023-07-31T09:00:16;9.50;;;7.30;;
